Flight Track Log - Related Links

Times and Time Zones

All times are in EDT time to prevent confusion due to time zone crossing. See the CTL16 flight status page for this flight to view local times or setup timezone preferences in your user account.

Time Position Orientation Groundspeed Altitude Reporting Facility
EDT Latitude Longitude Course Direction KTS MPH feet Rate Location/Type
Thu 08:22:37 PM 39.3833 -84.4667 360° North 140 161 1,800  Level Cincinnati TRACON
Thu 08:22:55 PM 39.3833 -84.4667 38° Northeast 142 163 2,100 720 Climbing Cincinnati TRACON
Thu 08:24:17 PM 39.4261 -84.4158 43° Northeast 153 176 3,000 816 Climbing Indianapolis Center
Thu 08:24:38 PM 39.4397 -84.3972 47° Northeast 156 180 3,500 885 Climbing Indianapolis Center
Thu 08:25:18 PM 39.4536 -84.3742 52° Northeast 152 175 3,900 590 Climbing Indianapolis Center
Thu 08:25:39 PM 39.4664 -84.3547 50° Northeast 156 180 4,100 484 Climbing Indianapolis Center
Thu 08:26:20 PM 39.4831 -84.3289 50° Northeast 157 181 4,400 627 Climbing Indianapolis Center
Thu 08:26:46 PM 39.5014 -84.3081 41° Northeast 166 191 4,800 677 Climbing Indianapolis Center
Thu 08:27:22 PM 39.5231 -84.2800 45° Northeast 163 188 5,100 500 Climbing Indianapolis Center
Thu 08:27:46 PM 39.5386 -84.2642 38° Northeast 171 197 5,300 590 Climbing Indianapolis Center
Thu 08:28:23 PM 39.5603 -84.2397 41° Northeast 169 194 5,700 590 Climbing Indianapolis Center
Thu 08:28:47 PM 39.5753 -84.2231 41° Northeast 171 197 5,900 484 Climbing Indianapolis Center
Thu 08:29:25 PM 39.5947 -84.1972 46° Northeast 169 194 6,200 545 Climbing Indianapolis Center
Thu 08:29:42 PM 39.6058 -84.1839 43° Northeast 170 196 6,400 492 Climbing Indianapolis Center
Thu 08:30:26 PM 39.6297 -84.1539 44° Northeast 171 197 6,700 492 Climbing Indianapolis Center
Thu 08:30:43 PM 39.6403 -84.1422 40° Northeast 173 199 6,900 387 Climbing Indianapolis Center
Thu 08:31:28 PM 39.6669 -84.1103 43° Northeast 174 200 7,100 197 Climbing Indianapolis Center
Thu 08:31:44 PM 39.6797 -84.0958 41° Northeast 183 211 7,100 -98 Level Indianapolis Center
Thu 08:32:29 PM 39.7069 -84.0642 42° Northeast 184 212 7,000  Descending Indianapolis Center
Thu 08:32:44 PM 39.7189 -84.0494 43° Northeast 197 227 7,100  Climbing Indianapolis Center
Thu 08:33:31 PM 39.7467 -84.0131 45° Northeast 193 222 7,000 -90 Descending Indianapolis Center
Thu 08:33:51 PM 39.7631 -83.9928 44° Northeast 196 226 7,000  Level Indianapolis Center
Thu 08:34:33 PM 39.7864 -83.9631 44° Northeast 196 226 7,000  Level Indianapolis Center
Thu 08:34:52 PM 39.8025 -83.9436 43° Northeast 195 224 7,000  Level Indianapolis Center
Thu 08:35:34 PM 39.8258 -83.9131 45° Northeast 196 226 7,000  Level Indianapolis Center
Thu 08:36:36 PM 39.8653 -83.8639 44° Northeast 195 224 7,000  Level Indianapolis Center
Thu 08:37:37 PM 39.9044 -83.8125 45° Northeast 196 226 7,000  Level Indianapolis Center
Thu 08:38:39 PM 39.9447 -83.7606 45° Northeast 198 228 7,000  Level Indianapolis Center
Thu 08:39:40 PM 39.9864 -83.7119 42° Northeast 199 229 7,000  Level Indianapolis Center
Thu 08:40:42 PM 40.0331 -83.6536 44° Northeast 197 227 7,000  Level Indianapolis Center
Thu 08:41:44 PM 40.0728 -83.6031 44° Northeast 197 227 7,000  Level Indianapolis Center
Thu 08:42:45 PM 40.1119 -83.5539 44° Northeast 194 223 7,000  Level Indianapolis Center
Thu 08:43:54 PM 40.1558 -83.5006 43° Northeast 188 216 7,000  Level Indianapolis Center
Thu 08:44:48 PM 40.1875 -83.4569 46° Northeast 189 217 7,000  Level Indianapolis Center
Thu 08:45:50 PM 40.2250 -83.4092 44° Northeast 187 215 7,000  Level Indianapolis Center
Thu 08:46:51 PM 40.2619 -83.3583 46° Northeast 189 217 7,000  Level Indianapolis Center
Thu 08:47:52 PM 40.2994 -83.3094 45° Northeast 190 219 7,000  Level Indianapolis Center
Thu 08:48:54 PM 40.3381 -83.2608 44° Northeast 190 219 7,000  Level Indianapolis Center
Thu 08:49:55 PM 40.3781 -83.2136 42° Northeast 192 221 7,000  Level Indianapolis Center
Thu 08:50:57 PM 40.4156 -83.1658 44° Northeast 188 216 7,000  Level Indianapolis Center
Thu 08:51:58 PM 40.4428 -83.1078 58° Northeast 187 215 7,000  Level Indianapolis Center
Thu 08:53:00 PM 40.4706 -83.0525 57° Northeast 181 208 7,000  Level Indianapolis Center
Thu 08:54:01 PM 40.4997 -82.9964 56° Northeast 184 212 7,000  Level Indianapolis Center
Thu 08:55:02 PM 40.5331 -82.9350 54° Northeast 182 209 7,000  Level Indianapolis Center
Thu 08:56:04 PM 40.5622 -82.8814 54° Northeast 180 207 7,000  Level Indianapolis Center
Thu 08:57:05 PM 40.5931 -82.8261 54° Northeast 185 213 7,000 49 Level Indianapolis Center
Thu 08:58:07 PM 40.6253 -82.7717 52° Northeast 187 215 7,100  Climbing Indianapolis Center
Thu 08:59:08 PM 40.6547 -82.7167 55° Northeast 184 212 7,000 -49 Descending Indianapolis Center
Thu 09:00:10 PM 40.6847 -82.6617 54° Northeast 184 212 7,000  Level Indianapolis Center
Thu 09:01:11 PM 40.7133 -82.6050 56° Northeast 185 213 7,000  Level Indianapolis Center
Thu 09:01:31 PM 40.7228 -82.5886 53° Northeast 184 212 7,000 70 Level Cleveland Center
Thu 09:02:37 PM 40.7594 -82.5267 52° Northeast 185 213 7,100 91 Climbing Cleveland Center

Login

Don't have an account? Register now (free) for customized features, flight alerts, and more!